createdAt,value
2023-05-12T00:00:44.532Z,15.90
2023-05-12T00:03:11.863Z,16.67
2023-05-12T00:05:38.755Z,15.70
2023-05-12T00:08:06.093Z,18.13
2023-05-12T00:10:33.044Z,17.40
2023-05-12T00:13:00.295Z,17.40
2023-05-12T00:15:27.133Z,19.30
2023-05-12T00:17:54.013Z,16.63
2023-05-12T00:20:21.203Z,17.60
2023-05-12T00:22:48.285Z,16.87
2023-05-12T00:25:15.229Z,17.00
2023-05-12T00:27:42.085Z,16.27
2023-05-12T00:30:09.605Z,17.40
2023-05-12T00:32:36.514Z,16.90
2023-05-12T00:35:03.570Z,16.30
2023-05-12T00:37:30.747Z,17.70
2023-05-12T00:40:00.675Z,16.37
2023-05-12T00:42:27.674Z,16.73
2023-05-12T00:44:54.476Z,18.47
2023-05-12T00:47:22.476Z,16.00
2023-05-12T00:49:49.361Z,16.00
2023-05-12T00:52:16.249Z,16.67
2023-05-12T00:54:44.464Z,15.97
2023-05-12T00:57:12.059Z,16.80
2023-05-12T00:59:38.894Z,16.83
2023-05-12T01:02:06.148Z,16.07
2023-05-12T01:04:34.315Z,16.20
2023-05-12T01:07:10.103Z,17.30
2023-05-12T01:09:36.980Z,17.10
2023-05-12T01:12:04.332Z,15.53
2023-05-12T01:14:31.215Z,15.20
2023-05-12T01:17:01.947Z,16.47
2023-05-12T01:19:42.725Z,13.97
2023-05-12T01:22:12.414Z,14.80
2023-05-12T01:24:55.619Z,15.30
2023-05-12T01:27:25.499Z,14.40
2023-05-12T01:29:53.326Z,13.80
2023-05-12T01:32:22.322Z,15.10
2023-05-12T01:34:50.489Z,12.57
2023-05-12T01:37:17.343Z,11.77
2023-05-12T01:39:44.742Z,9.67
2023-05-12T01:42:11.620Z,8.93
2023-05-12T01:44:38.469Z,7.23
2023-05-12T01:47:05.766Z,7.40
2023-05-12T01:49:32.592Z,8.20
2023-05-12T01:51:59.529Z,8.40
2023-05-12T01:54:26.321Z,8.67
2023-05-12T01:56:53.162Z,6.90
2023-05-12T01:59:20.083Z,8.77
2023-05-12T02:01:47.024Z,7.90
2023-05-12T02:04:14.061Z,7.60
2023-05-12T02:06:41.003Z,7.40
2023-05-12T02:09:07.849Z,6.47
2023-05-12T02:11:34.703Z,7.60
2023-05-12T02:14:01.494Z,6.47
2023-05-12T02:16:28.323Z,7.53
2023-05-12T02:18:55.288Z,6.63
2023-05-12T02:21:22.205Z,6.90
2023-05-12T02:23:49.139Z,6.43
2023-05-12T02:26:15.951Z,6.70
2023-05-12T02:28:42.890Z,6.80
2023-05-12T02:31:09.799Z,6.70
2023-05-12T02:33:37.026Z,5.43
2023-05-12T02:36:04.111Z,5.50
2023-05-12T02:38:31.007Z,5.30
2023-05-12T02:40:58.210Z,6.40
2023-05-12T02:43:25.052Z,6.00
2023-05-12T02:45:52.080Z,6.30
2023-05-12T02:48:18.971Z,5.90
2023-05-12T02:50:45.923Z,5.87
2023-05-12T02:53:12.872Z,7.03
2023-05-12T02:55:39.690Z,6.30
2023-05-12T02:58:07.234Z,7.03
2023-05-12T03:00:34.079Z,6.07
2023-05-12T03:03:01.079Z,6.33
2023-05-12T03:05:28.018Z,7.03
2023-05-12T03:07:54.909Z,6.07
2023-05-12T03:10:22.581Z,5.90
2023-05-12T03:12:49.732Z,8.17
2023-05-12T03:15:16.769Z,8.10
2023-05-12T03:17:43.717Z,7.67
2023-05-12T03:20:11.026Z,7.90
2023-05-12T03:22:38.178Z,8.27
2023-05-12T03:25:05.801Z,9.10
2023-05-12T03:27:33.181Z,9.03
2023-05-12T03:30:05.240Z,10.53
2023-05-12T03:32:32.101Z,11.40
2023-05-12T03:34:58.953Z,12.40
2023-05-12T03:37:25.768Z,13.03
2023-05-12T03:39:56.235Z,14.00
2023-05-12T03:42:26.262Z,15.83
2023-05-12T03:44:53.159Z,16.00
2023-05-12T03:47:20.203Z,19.20
2023-05-12T03:49:47.178Z,19.40
2023-05-12T03:52:14.290Z,20.40
2023-05-12T03:54:41.275Z,24.30
2023-05-12T03:57:08.318Z,23.90
2023-05-12T03:59:35.331Z,24.70
2023-05-12T04:02:02.293Z,26.60
2023-05-12T04:04:29.239Z,28.00
2023-05-12T04:06:56.515Z,26.50
2023-05-12T04:09:23.404Z,27.77
2023-05-12T04:11:50.270Z,27.90
2023-05-12T04:14:17.096Z,26.50
2023-05-12T04:16:44.003Z,23.83
2023-05-12T04:19:11.025Z,21.20
2023-05-12T04:21:37.924Z,20.20
2023-05-12T04:24:05.230Z,24.97
2023-05-12T04:26:32.092Z,24.27
2023-05-12T04:28:59.068Z,29.37
2023-05-12T04:31:25.987Z,30.90
2023-05-12T04:33:52.996Z,30.83
2023-05-12T04:36:19.861Z,28.63
2023-05-12T04:38:46.773Z,31.80
2023-05-12T04:41:13.678Z,35.10
2023-05-12T04:46:10.579Z,28.33
2023-05-12T04:48:42.134Z,24.57
2023-05-12T04:51:09.127Z,24.70
2023-05-12T04:53:36.453Z,24.07
2023-05-12T04:56:03.905Z,23.77
2023-05-12T04:58:30.757Z,20.90
2023-05-12T05:00:57.647Z,21.90
2023-05-12T05:03:25.842Z,19.43
2023-05-12T05:05:52.750Z,21.43
2023-05-12T05:08:19.835Z,19.20
2023-05-12T05:10:46.648Z,17.43
2023-05-12T05:13:13.715Z,17.73
2023-05-12T05:15:40.663Z,16.57
2023-05-12T05:18:07.551Z,17.07
2023-05-12T05:20:34.856Z,17.17
2023-05-12T05:23:01.793Z,17.53
2023-05-12T05:25:28.667Z,17.47
2023-05-12T05:27:55.921Z,16.73
2023-05-12T05:30:22.785Z,15.90
2023-05-12T05:32:49.775Z,16.17
2023-05-12T05:35:16.923Z,14.43
2023-05-12T05:37:43.833Z,15.57
2023-05-12T05:40:10.958Z,15.93
2023-05-12T05:42:37.855Z,12.93
2023-05-12T05:45:05.165Z,14.80
2023-05-12T05:47:32.395Z,14.40
2023-05-12T05:49:59.275Z,13.73
2023-05-12T05:52:26.176Z,12.47
2023-05-12T05:54:52.977Z,11.60
2023-05-12T05:57:19.787Z,13.03
2023-05-12T05:59:46.645Z,12.07
2023-05-12T06:04:40.358Z,11.03
2023-05-12T06:07:07.260Z,10.40
2023-05-12T06:09:34.089Z,10.73
2023-05-12T06:12:00.902Z,11.03
2023-05-12T06:14:27.732Z,9.27
2023-05-12T06:16:54.618Z,9.33
2023-05-12T06:19:21.782Z,8.20
2023-05-12T06:21:48.639Z,8.10
2023-05-12T06:24:15.528Z,7.00
2023-05-12T06:26:42.365Z,7.63
2023-05-12T06:29:09.427Z,6.63
2023-05-12T06:31:36.310Z,5.80
2023-05-12T06:34:03.329Z,5.33
2023-05-12T06:36:30.613Z,6.20
2023-05-12T06:38:57.527Z,5.30
2023-05-12T06:41:25.338Z,4.57
2023-05-12T06:43:52.580Z,4.87
2023-05-12T06:46:19.532Z,4.70
2023-05-12T06:48:46.457Z,3.73
2023-05-12T06:51:13.721Z,4.40
2023-05-12T06:53:41.654Z,4.40
2023-05-12T06:56:08.716Z,3.70
2023-05-12T06:58:35.571Z,3.80
2023-05-12T07:01:02.542Z,3.80
2023-05-12T07:03:32.501Z,3.50
2023-05-12T07:05:59.625Z,3.30
2023-05-12T07:08:26.600Z,3.67
2023-05-12T07:10:53.756Z,4.20
2023-05-12T07:13:20.652Z,3.83
2023-05-12T07:15:47.744Z,3.93
2023-05-12T07:18:14.585Z,3.37
2023-05-12T07:20:41.410Z,3.67
2023-05-12T07:23:09.381Z,3.10
2023-05-12T07:25:36.291Z,4.97
2023-05-12T07:28:03.151Z,4.07
2023-05-12T07:30:30.043Z,3.50
2023-05-12T07:32:57.907Z,3.40
2023-05-12T07:35:24.902Z,2.73
2023-05-12T07:37:51.829Z,3.30
2023-05-12T07:40:18.733Z,3.33
2023-05-12T07:42:45.632Z,3.17
2023-05-12T07:45:12.614Z,3.27
2023-05-12T07:47:39.966Z,3.17
2023-05-12T07:50:07.297Z,3.50
2023-05-12T07:52:34.231Z,3.60
2023-05-12T07:55:01.080Z,3.13
2023-05-12T07:57:27.965Z,3.00
2023-05-12T07:59:54.828Z,3.17
2023-05-12T08:02:21.726Z,3.10
2023-05-12T08:04:48.629Z,3.27
2023-05-12T08:07:15.953Z,3.10
2023-05-12T08:09:42.871Z,3.50
2023-05-12T08:12:09.736Z,3.13
2023-05-12T08:14:36.800Z,2.90
2023-05-12T08:19:36.544Z,2.83
2023-05-12T08:22:03.646Z,2.67
2023-05-12T08:24:30.647Z,2.60
2023-05-12T08:26:57.501Z,2.27
2023-05-12T08:29:24.355Z,2.43
2023-05-12T08:31:51.247Z,2.57
2023-05-12T08:34:18.119Z,2.37
2023-05-12T08:36:45.120Z,2.47
2023-05-12T08:39:12.086Z,2.43
2023-05-12T08:41:47.072Z,2.47
2023-05-12T08:44:16.042Z,2.50
2023-05-12T08:46:43.715Z,2.40
2023-05-12T08:49:12.608Z,2.57
2023-05-12T08:51:42.225Z,2.10
2023-05-12T08:54:10.747Z,2.63
2023-05-12T08:59:10.564Z,1.80
2023-05-12T09:01:38.219Z,3.23
2023-05-12T09:04:06.197Z,1.63
2023-05-12T09:06:33.952Z,1.90
2023-05-12T09:09:00.890Z,1.80
2023-05-12T09:11:27.728Z,1.77
2023-05-12T09:14:23.148Z,1.73
2023-05-12T09:16:53.220Z,1.90
2023-05-12T09:19:21.454Z,1.80
2023-05-12T09:21:48.983Z,2.30
2023-05-12T09:24:16.030Z,2.03
2023-05-12T09:26:47.937Z,3.20
2023-05-12T09:29:24.125Z,1.90
2023-05-12T09:31:58.799Z,2.10
2023-05-12T09:34:32.725Z,2.33
2023-05-12T09:37:02.104Z,2.43
2023-05-12T09:39:29.189Z,2.27
2023-05-12T09:41:56.333Z,2.30
2023-05-12T09:44:25.135Z,1.90
2023-05-12T09:46:53.366Z,2.03
2023-05-12T09:49:26.929Z,2.73
2023-05-12T09:51:57.146Z,2.17
2023-05-12T09:54:31.072Z,2.20
2023-05-12T09:56:59.885Z,2.47
2023-05-12T09:59:36.647Z,2.30
2023-05-12T10:02:06.296Z,2.67
2023-05-12T10:04:47.787Z,2.40
2023-05-12T10:07:16.688Z,2.07
2023-05-12T10:09:45.415Z,2.07
2023-05-12T10:12:13.202Z,2.20
2023-05-12T10:14:41.046Z,2.10
2023-05-12T10:19:43.397Z,1.87
2023-05-12T10:22:11.412Z,2.27
2023-05-12T10:24:39.499Z,2.53
2023-05-12T10:27:07.422Z,1.70
2023-05-12T10:29:35.666Z,1.70
2023-05-12T10:32:02.736Z,2.23
2023-05-12T10:34:35.103Z,2.17
2023-05-12T10:37:08.442Z,2.43
2023-05-12T10:39:35.606Z,2.10
2023-05-12T10:42:06.421Z,1.97
2023-05-12T10:44:33.318Z,1.80
2023-05-12T10:47:00.354Z,2.20
2023-05-12T10:49:40.241Z,1.80
2023-05-12T10:52:07.664Z,1.80
2023-05-12T10:54:44.909Z,2.00
2023-05-12T10:57:17.151Z,2.43
2023-05-12T11:00:02.321Z,2.50
2023-05-12T11:02:36.391Z,2.63
2023-05-12T11:05:13.113Z,2.20
2023-05-12T11:07:41.832Z,2.30
2023-05-12T11:10:10.485Z,3.13
2023-05-12T11:12:37.734Z,3.50
2023-05-12T11:15:06.514Z,3.20
2023-05-12T11:17:33.595Z,3.20
2023-05-12T11:20:03.570Z,3.30
2023-05-12T11:22:30.521Z,3.10
2023-05-12T11:24:57.649Z,2.90
2023-05-12T11:27:24.768Z,3.37
2023-05-12T11:30:00.270Z,3.63
2023-05-12T11:32:27.573Z,3.43
2023-05-12T11:34:54.620Z,3.10
2023-05-12T11:37:22.120Z,3.27
2023-05-12T11:39:49.288Z,3.50
2023-05-12T11:42:19.784Z,3.27
2023-05-12T11:44:49.492Z,3.67
2023-05-12T11:47:17.802Z,3.53
2023-05-12T11:49:52.418Z,3.00
2023-05-12T11:52:21.709Z,3.37
2023-05-12T11:54:52.333Z,3.20
2023-05-12T11:57:33.947Z,3.60
2023-05-12T12:00:03.492Z,3.17
2023-05-12T12:02:30.784Z,4.07
2023-05-12T12:04:58.093Z,3.57
2023-05-12T12:07:32.856Z,3.50
2023-05-12T12:10:11.053Z,3.73
2023-05-12T12:12:37.966Z,3.23
2023-05-12T12:15:05.353Z,3.43
2023-05-12T12:17:32.219Z,3.67
2023-05-12T12:19:59.493Z,3.70
2023-05-12T12:22:34.386Z,2.80
2023-05-12T12:25:02.878Z,3.40
2023-05-12T12:27:29.968Z,3.23
2023-05-12T12:29:56.789Z,3.17
2023-05-12T12:32:23.793Z,3.30
2023-05-12T12:34:50.753Z,3.47
2023-05-12T12:37:17.826Z,3.10
2023-05-12T12:39:44.678Z,3.10
2023-05-12T12:42:11.565Z,3.00
2023-05-12T12:44:38.418Z,2.80
2023-05-12T12:47:05.506Z,2.63
2023-05-12T12:49:32.387Z,4.10
2023-05-12T12:51:59.231Z,3.13
2023-05-12T12:54:27.741Z,3.50
2023-05-12T12:56:55.951Z,3.43
2023-05-12T12:59:23.575Z,3.07
2023-05-12T13:01:50.524Z,3.20
2023-05-12T13:04:22.282Z,3.70
2023-05-12T13:06:49.576Z,4.27
2023-05-12T13:09:19.732Z,3.73
2023-05-12T13:11:47.798Z,3.37
2023-05-12T13:14:14.766Z,2.90
2023-05-12T13:16:41.999Z,2.80
2023-05-12T13:19:09.135Z,3.53
2023-05-12T13:21:36.169Z,2.93
2023-05-12T13:24:03.041Z,3.00
2023-05-12T13:26:29.886Z,3.10
2023-05-12T13:28:56.714Z,2.90
2023-05-12T13:31:23.712Z,3.43
2023-05-12T13:33:50.752Z,2.90
2023-05-12T13:36:17.752Z,2.77
2023-05-12T13:38:47.238Z,2.80
2023-05-12T13:41:14.157Z,3.20
2023-05-12T13:43:40.968Z,3.77
2023-05-12T13:46:08.512Z,3.90
2023-05-12T13:48:35.863Z,3.43
2023-05-12T13:51:02.730Z,3.57
2023-05-12T13:53:29.537Z,3.60
2023-05-12T13:55:56.435Z,3.60
2023-05-12T13:58:23.254Z,3.30
2023-05-12T14:00:50.175Z,3.63
2023-05-12T14:03:17.017Z,3.70
2023-05-12T14:05:43.822Z,3.50
2023-05-12T14:08:10.671Z,3.50
2023-05-12T14:10:37.638Z,2.90
2023-05-12T14:13:05.349Z,2.83
2023-05-12T14:15:44.781Z,3.40
2023-05-12T14:18:15.300Z,3.30
2023-05-12T14:20:42.351Z,3.37
2023-05-12T14:23:09.262Z,3.90
2023-05-12T14:25:36.204Z,3.90
2023-05-12T14:28:03.829Z,4.00
2023-05-12T14:30:40.594Z,3.83
2023-05-12T14:33:08.044Z,3.33
2023-05-12T14:35:35.112Z,3.60
2023-05-12T14:38:01.966Z,3.57
2023-05-12T14:40:28.833Z,3.53
2023-05-12T14:42:55.834Z,3.63
2023-05-12T14:45:23.114Z,3.70
2023-05-12T14:47:50.204Z,3.50
2023-05-12T14:50:18.436Z,3.53
2023-05-12T14:52:45.513Z,3.10
2023-05-12T14:55:12.485Z,6.47
2023-05-12T14:57:40.353Z,3.80
2023-05-12T15:00:08.961Z,3.53
2023-05-12T15:02:35.916Z,3.63
2023-05-12T15:05:03.045Z,4.33
2023-05-12T15:07:30.189Z,4.20
2023-05-12T15:09:57.078Z,3.60
2023-05-12T15:12:24.036Z,3.60
2023-05-12T15:14:51.332Z,3.77
2023-05-12T15:17:18.321Z,5.23
2023-05-12T15:19:45.440Z,3.23
2023-05-12T15:22:12.311Z,3.67
2023-05-12T15:24:39.238Z,3.40
2023-05-12T15:27:07.334Z,3.43
2023-05-12T15:29:38.842Z,3.67
2023-05-12T15:32:06.078Z,3.63
2023-05-12T15:34:32.973Z,3.30
2023-05-12T15:36:59.895Z,3.83
2023-05-12T15:39:26.908Z,3.37
2023-05-12T15:41:53.788Z,3.60
2023-05-12T15:44:20.934Z,3.60
2023-05-12T15:46:47.887Z,3.47
2023-05-12T15:49:14.795Z,3.83
2023-05-12T15:51:41.806Z,3.00
2023-05-12T15:54:09.706Z,3.40
2023-05-12T15:56:37.562Z,3.07
2023-05-12T15:59:05.374Z,3.47
2023-05-12T16:01:32.419Z,3.10
2023-05-12T16:03:59.796Z,3.10
2023-05-12T16:06:27.006Z,2.73
2023-05-12T16:08:53.973Z,4.40
2023-05-12T16:11:21.015Z,3.30
2023-05-12T16:13:47.849Z,3.67
2023-05-12T16:16:14.775Z,4.00
2023-05-12T16:18:43.128Z,3.67
2023-05-12T16:21:10.063Z,3.00
2023-05-12T16:23:36.939Z,2.60
2023-05-12T16:26:03.883Z,3.20
2023-05-12T16:28:33.227Z,2.77
2023-05-12T16:31:01.480Z,3.60
2023-05-12T16:33:28.379Z,4.70
2023-05-12T16:35:55.452Z,3.40
2023-05-12T16:38:22.304Z,3.03
2023-05-12T16:40:49.515Z,4.10
2023-05-12T16:43:16.572Z,3.73
2023-05-12T16:45:43.677Z,4.10
2023-05-12T16:48:10.533Z,3.40
2023-05-12T16:50:37.374Z,3.50
2023-05-12T16:53:04.286Z,3.70
2023-05-12T16:55:31.098Z,3.00
2023-05-12T16:57:57.989Z,3.37
2023-05-12T17:00:24.913Z,3.57
2023-05-12T17:02:51.818Z,2.93
2023-05-12T17:05:18.907Z,2.70
2023-05-12T17:07:46.252Z,3.00
2023-05-12T17:10:13.067Z,2.83
2023-05-12T17:12:39.934Z,2.97
2023-05-12T17:15:08.606Z,2.57
2023-05-12T17:17:36.033Z,3.27
2023-05-12T17:20:04.065Z,3.73
2023-05-12T17:22:32.217Z,3.27
2023-05-12T17:24:59.147Z,3.60
2023-05-12T17:27:26.007Z,3.37
2023-05-12T17:29:52.941Z,3.27
2023-05-12T17:32:19.790Z,3.03
2023-05-12T17:34:50.561Z,3.17
2023-05-12T17:37:18.068Z,3.40
2023-05-12T17:39:44.968Z,3.77
2023-05-12T17:42:11.792Z,2.97
2023-05-12T17:44:38.630Z,3.70
2023-05-12T17:47:05.908Z,3.80
2023-05-12T17:49:32.840Z,7.57
2023-05-12T17:51:59.710Z,108.43
2023-05-12T17:54:26.527Z,6.03
2023-05-12T17:56:53.431Z,5.47
2023-05-12T17:59:20.557Z,4.23
2023-05-12T18:01:47.373Z,4.63
2023-05-12T18:04:14.232Z,3.50
2023-05-12T18:06:41.343Z,6.60
2023-05-12T18:09:09.069Z,3.43
2023-05-12T18:11:35.946Z,3.17
2023-05-12T18:14:06.136Z,7.80
2023-05-12T18:16:33.651Z,3.70
2023-05-12T18:19:00.822Z,4.50
2023-05-12T18:21:27.774Z,4.10
2023-05-12T18:23:54.646Z,7.60
2023-05-12T18:26:21.664Z,3.70
2023-05-12T18:28:48.738Z,10.63
2023-05-12T18:31:16.792Z,4.10
2023-05-12T18:33:47.253Z,3.80
2023-05-12T18:36:14.801Z,4.23
2023-05-12T18:38:42.061Z,3.77
2023-05-12T18:41:09.217Z,4.47
2023-05-12T18:43:36.436Z,4.20
2023-05-12T18:46:04.243Z,4.30
2023-05-12T18:48:31.375Z,4.80
2023-05-12T18:50:58.350Z,3.63
2023-05-12T18:53:25.219Z,3.67
2023-05-12T18:55:52.078Z,4.30
2023-05-12T18:58:19.057Z,4.30
2023-05-12T19:00:46.068Z,4.97
2023-05-12T19:03:13.081Z,5.40
2023-05-12T19:05:44.555Z,5.80
2023-05-12T19:08:12.755Z,5.57
2023-05-12T19:10:40.227Z,5.20
2023-05-12T19:13:07.363Z,5.60
2023-05-12T19:15:34.463Z,5.33
2023-05-12T19:18:01.360Z,4.73
2023-05-12T19:20:29.173Z,6.83
2023-05-12T19:22:56.120Z,5.80
2023-05-12T19:25:23.490Z,5.00
2023-05-12T19:27:51.017Z,5.53
2023-05-12T19:30:18.027Z,5.33
2023-05-12T19:32:46.196Z,5.30
2023-05-12T19:35:16.209Z,6.00
2023-05-12T19:37:43.394Z,4.83
2023-05-12T19:40:10.492Z,5.43
2023-05-12T19:42:38.159Z,5.00
2023-05-12T19:45:05.948Z,4.73
2023-05-12T19:47:33.604Z,5.40
2023-05-12T19:50:01.109Z,4.83
2023-05-12T19:52:30.745Z,5.30
2023-05-12T19:54:58.005Z,5.10
2023-05-12T19:57:24.856Z,4.70
2023-05-12T19:59:51.959Z,5.37
2023-05-12T20:02:18.859Z,4.53
2023-05-12T20:04:45.923Z,5.03
2023-05-12T20:07:12.799Z,4.80
2023-05-12T20:09:39.608Z,6.10
2023-05-12T20:12:08.969Z,5.43
2023-05-12T20:14:36.343Z,5.10
2023-05-12T20:19:39.944Z,5.17
2023-05-12T20:22:06.965Z,4.60
2023-05-12T20:24:33.926Z,5.77
2023-05-12T20:27:00.804Z,5.70
2023-05-12T20:29:28.116Z,5.53
2023-05-12T20:31:55.031Z,5.63
2023-05-12T20:34:22.234Z,5.13
2023-05-12T20:36:50.590Z,6.30
2023-05-12T20:39:18.380Z,5.40
2023-05-12T20:41:45.262Z,5.70
2023-05-12T20:44:12.201Z,6.20
2023-05-12T20:46:40.125Z,6.37
2023-05-12T20:49:07.340Z,7.20
2023-05-12T20:51:34.773Z,5.93
2023-05-12T20:54:01.724Z,6.43
2023-05-12T20:56:28.628Z,6.70
2023-05-12T20:58:57.415Z,7.43
2023-05-12T21:01:24.414Z,7.03
2023-05-12T21:03:51.360Z,6.73
2023-05-12T21:06:18.441Z,6.57
2023-05-12T21:08:46.833Z,9.50
2023-05-12T21:11:16.235Z,7.07
2023-05-12T21:13:44.613Z,6.73
2023-05-12T21:16:11.563Z,7.63
2023-05-12T21:18:38.683Z,7.70
2023-05-12T21:21:06.680Z,7.10
2023-05-12T21:23:33.550Z,7.30
2023-05-12T21:26:00.515Z,7.23
2023-05-12T21:28:27.746Z,7.17
2023-05-12T21:30:54.699Z,7.07
2023-05-12T21:33:21.759Z,7.10
2023-05-12T21:35:50.095Z,7.13
2023-05-12T21:38:17.316Z,7.40
2023-05-12T21:40:44.478Z,7.70
2023-05-12T21:43:11.358Z,7.37
2023-05-12T21:45:38.189Z,8.20
2023-05-12T21:48:05.622Z,7.70
2023-05-12T21:50:32.490Z,8.10
2023-05-12T21:52:59.399Z,8.00
2023-05-12T21:55:26.563Z,7.67
2023-05-12T21:57:53.491Z,7.80
2023-05-12T22:00:21.584Z,8.83
2023-05-12T22:02:48.741Z,8.00
2023-05-12T22:05:15.705Z,7.93
2023-05-12T22:07:42.545Z,7.33
2023-05-12T22:10:09.816Z,7.60
2023-05-12T22:12:37.451Z,10.23
2023-05-12T22:15:04.729Z,13.20
2023-05-12T22:17:31.841Z,12.20
2023-05-12T22:19:58.718Z,10.10
2023-05-12T22:22:25.582Z,10.03
2023-05-12T22:24:52.460Z,10.27
2023-05-12T22:27:22.245Z,10.20
2023-05-12T22:29:49.825Z,11.43
2023-05-12T22:32:16.706Z,12.40
2023-05-12T22:34:43.588Z,11.33
2023-05-12T22:37:10.430Z,11.70
2023-05-12T22:39:37.253Z,11.63
2023-05-12T22:42:04.384Z,11.40
2023-05-12T22:44:31.166Z,11.00
2023-05-12T22:46:58.252Z,12.17
2023-05-12T22:49:25.065Z,9.80
2023-05-12T22:51:52.167Z,11.47
2023-05-12T22:54:19.040Z,11.00
2023-05-12T22:56:45.898Z,11.30
2023-05-12T22:59:12.791Z,10.03
2023-05-12T23:01:40.076Z,13.77
2023-05-12T23:04:07.237Z,12.30
2023-05-12T23:06:34.186Z,11.23
2023-05-12T23:09:01.246Z,11.20
2023-05-12T23:11:28.057Z,11.67
2023-05-12T23:13:54.888Z,12.50
2023-05-12T23:16:25.170Z,11.37
2023-05-12T23:18:52.248Z,12.27
2023-05-12T23:21:19.121Z,12.53
2023-05-12T23:23:45.913Z,12.77
2023-05-12T23:26:12.742Z,12.77
2023-05-12T23:28:39.636Z,12.07
2023-05-12T23:31:06.590Z,13.63
2023-05-12T23:33:33.541Z,13.70
2023-05-12T23:36:00.820Z,12.37
2023-05-12T23:38:27.898Z,13.50
2023-05-12T23:40:54.806Z,13.80
2023-05-12T23:43:21.625Z,13.30
2023-05-12T23:45:48.536Z,14.17
2023-05-12T23:48:15.486Z,13.17
2023-05-12T23:50:42.388Z,13.73
2023-05-12T23:53:09.275Z,12.60
2023-05-12T23:55:37.457Z,12.80
2023-05-12T23:58:04.286Z,12.90
